createdAt,value
2023-04-12T00:01:42.377Z,100284.16
2023-04-12T00:04:14.530Z,100291.25
2023-04-12T00:06:48.409Z,100223.78
2023-04-12T00:09:20.745Z,100246.69
2023-04-12T00:11:52.029Z,100277.44
2023-04-12T00:14:23.856Z,100248.56
2023-04-12T00:16:56.304Z,100246.91
2023-04-12T00:19:30.951Z,100248.72
2023-04-12T00:22:02.596Z,100245.31
2023-04-12T00:24:33.958Z,100242.75
2023-04-12T00:27:06.108Z,100245.50
2023-04-12T00:29:37.508Z,100226.31
2023-04-12T00:32:08.970Z,100240.34
2023-04-12T00:34:40.443Z,100214.13
2023-04-12T00:37:12.217Z,100211.56
2023-04-12T00:39:44.117Z,100145.94
2023-04-12T00:42:15.499Z,100236.13
2023-04-12T00:44:46.931Z,100206.41
2023-04-12T00:47:18.879Z,100195.94
2023-04-12T00:49:50.455Z,100203.84
2023-04-12T00:52:22.201Z,100183.72
2023-04-12T00:54:54.328Z,100173.25
2023-04-12T00:57:25.776Z,100176.75
2023-04-12T00:59:57.144Z,100196.91
2023-04-12T01:02:30.910Z,100182.03
2023-04-12T01:05:02.938Z,100150.56
2023-04-12T01:07:47.709Z,100109.44
2023-04-12T01:10:24.970Z,100173.34
2023-04-12T01:13:11.806Z,100154.97
2023-04-12T01:16:03.180Z,100152.34
2023-04-12T01:18:40.811Z,100147.09
2023-04-12T01:21:24.403Z,100145.34
2023-04-12T01:24:13.686Z,100055.25
2023-04-12T01:26:47.358Z,100100.72
2023-04-12T01:29:22.259Z,100135.75
2023-04-12T01:31:58.756Z,100135.75
2023-04-12T01:34:32.306Z,100128.75
2023-04-12T01:37:03.769Z,100061.38
2023-04-12T01:39:35.786Z,100123.50
2023-04-12T01:42:07.138Z,100040.41
2023-04-12T01:44:38.422Z,100122.63
2023-04-12T01:47:09.823Z,100106.00
2023-04-12T01:50:24.432Z,100122.63
2023-04-12T01:53:03.403Z,100068.38
2023-04-12T01:55:37.773Z,100101.63
2023-04-12T01:58:11.726Z,100001.94
2023-04-12T02:00:44.911Z,100085.00
2023-04-12T02:03:18.492Z,100032.53
2023-04-12T02:05:52.117Z,100088.47
2023-04-12T02:08:23.728Z,100071.88
2023-04-12T02:10:57.330Z,100079.75
2023-04-12T02:13:28.646Z,100058.75
2023-04-12T02:16:02.305Z,100059.63
2023-04-12T02:18:36.804Z,100047.38
2023-04-12T02:21:08.212Z,100022.03
2023-04-12T02:23:39.572Z,100071.00
2023-04-12T02:26:11.311Z,100025.53
2023-04-12T02:28:42.998Z,100029.00
2023-04-12T02:31:15.478Z,100021.13
2023-04-12T02:33:47.004Z,99925.00
2023-04-12T02:36:18.480Z,100015.88
2023-04-12T02:38:52.985Z,100001.00
2023-04-12T02:41:25.201Z,99914.50
2023-04-12T02:43:56.676Z,99905.75
2023-04-12T02:46:28.527Z,99977.34
2023-04-12T02:49:00.195Z,99986.06
2023-04-12T02:51:31.560Z,99952.84
2023-04-12T02:54:02.995Z,99977.25
2023-04-12T02:56:37.398Z,99950.19
2023-04-12T02:59:08.702Z,99943.19
2023-04-12T03:01:40.117Z,99947.56
2023-04-12T03:04:11.909Z,99944.00
2023-04-12T03:06:53.558Z,99946.63
2023-04-12T03:09:25.222Z,99889.88
2023-04-12T03:11:56.581Z,99954.44
2023-04-12T03:14:28.007Z,99927.34
2023-04-12T03:16:59.418Z,99891.56
2023-04-12T03:19:33.027Z,99925.56
2023-04-12T03:22:04.758Z,99915.91
2023-04-12T03:24:37.155Z,99923.78
2023-04-12T03:27:08.717Z,99901.97
2023-04-12T03:29:40.263Z,99900.16
2023-04-12T03:32:11.648Z,99826.91
2023-04-12T03:34:43.036Z,99894.91
2023-04-12T03:37:14.617Z,99864.31
2023-04-12T03:39:47.999Z,99865.16
2023-04-12T03:42:32.191Z,99784.94
2023-04-12T03:45:05.276Z,99776.19
2023-04-12T03:47:37.159Z,99867.75
2023-04-12T03:50:12.345Z,99854.59
2023-04-12T03:52:43.981Z,99811.06
2023-04-12T03:55:18.065Z,99846.75
2023-04-12T03:57:49.445Z,99843.25
2023-04-12T04:00:21.317Z,99783.03
2023-04-12T04:02:52.913Z,99823.09
2023-04-12T04:05:24.509Z,99803.88
2023-04-12T04:07:56.862Z,99793.38
2023-04-12T04:10:28.595Z,99806.44
2023-04-12T04:13:00.149Z,99802.91
2023-04-12T04:15:32.833Z,99789.84
2023-04-12T04:18:05.588Z,99791.56
2023-04-12T04:20:37.177Z,99753.28
2023-04-12T04:23:10.208Z,99808.16
2023-04-12T04:25:41.853Z,99794.19
2023-04-12T04:28:17.089Z,99721.81
2023-04-12T04:30:48.690Z,99769.69
2023-04-12T04:33:21.155Z,99788.00
2023-04-12T04:35:52.850Z,99768.81
2023-04-12T04:38:27.242Z,99768.78
2023-04-12T04:41:02.459Z,99787.94
2023-04-12T04:43:34.260Z,99784.44
2023-04-12T04:46:06.251Z,99771.31
2023-04-12T04:48:37.961Z,99766.94
2023-04-12T04:51:09.650Z,99760.00
2023-04-12T04:53:41.054Z,99746.00
2023-04-12T04:56:12.692Z,99749.47
2023-04-12T04:58:44.059Z,99728.56
2023-04-12T05:01:16.955Z,99763.41
2023-04-12T05:03:49.911Z,99756.38
2023-04-12T05:06:22.618Z,99666.66
2023-04-12T05:08:54.326Z,99733.63
2023-04-12T05:11:26.051Z,99673.38
2023-04-12T05:13:57.379Z,99707.22
2023-04-12T05:16:29.013Z,99710.69
2023-04-12T05:19:00.312Z,99631.41
2023-04-12T05:21:33.203Z,99707.97
2023-04-12T05:24:04.844Z,99712.25
2023-04-12T05:26:36.149Z,99717.41
2023-04-12T05:29:08.500Z,99690.28
2023-04-12T05:31:39.972Z,99655.38
2023-04-12T05:34:17.727Z,99707.59
2023-04-12T05:36:49.094Z,99705.84
2023-04-12T05:39:20.896Z,99697.00
2023-04-12T05:41:52.452Z,99702.22
2023-04-12T05:44:24.654Z,99691.97
2023-04-12T05:46:56.320Z,99697.28
2023-04-12T05:49:31.725Z,99676.69
2023-04-12T05:52:05.714Z,99619.72
2023-04-12T05:54:37.462Z,99696.81
2023-04-12T05:57:09.978Z,99610.47
2023-04-12T05:59:41.324Z,99631.44
2023-04-12T06:02:12.816Z,99604.25
2023-04-12T06:04:50.934Z,99680.31
2023-04-12T06:07:23.251Z,99654.59
2023-04-12T06:09:54.716Z,99668.06
2023-04-12T06:12:26.086Z,99653.63
2023-04-12T06:14:57.446Z,99657.75
2023-04-12T06:17:28.802Z,99653.91
2023-04-12T06:20:00.221Z,99654.22
2023-04-12T06:22:33.268Z,99616.91
2023-04-12T06:25:05.318Z,99621.09
2023-04-12T06:27:36.641Z,99664.72
2023-04-12T06:30:08.860Z,99645.28
2023-04-12T06:32:40.460Z,99594.78
2023-04-12T06:35:11.829Z,99648.53
2023-04-12T06:37:43.210Z,99651.13
2023-04-12T06:40:14.738Z,99631.81
2023-04-12T06:42:46.558Z,99642.97
2023-04-12T06:45:17.875Z,99632.28
2023-04-12T06:47:49.356Z,99608.53
2023-04-12T06:50:20.734Z,99621.97
2023-04-12T06:52:52.216Z,99594.00
2023-04-12T06:55:23.644Z,99610.31
2023-04-12T06:57:55.561Z,99605.78
2023-04-12T07:00:27.042Z,99621.50
2023-04-12T07:02:58.433Z,99591.25
2023-04-12T07:05:30.260Z,99601.25
2023-04-12T07:08:01.761Z,99611.47
2023-04-12T07:10:33.082Z,99603.41
2023-04-12T07:13:07.137Z,99611.97
2023-04-12T07:15:38.544Z,99590.16
2023-04-12T07:18:10.073Z,99537.19
2023-04-12T07:20:41.676Z,99593.53
2023-04-12T07:23:13.105Z,99600.25
2023-04-12T07:25:44.547Z,99557.78
2023-04-12T07:28:15.999Z,99521.59
2023-04-12T07:30:47.280Z,99539.09
2023-04-12T07:33:19.840Z,99578.13
2023-04-12T07:35:51.503Z,99574.84
2023-04-12T07:41:02.886Z,99557.63
2023-04-12T07:43:34.188Z,99568.06
2023-04-12T07:46:08.372Z,99570.16
2023-04-12T07:48:39.859Z,99537.03
2023-04-12T07:53:28.563Z,99542.94
2023-04-12T07:55:59.917Z,99538.53
2023-04-12T07:58:31.376Z,99533.28
2023-04-12T08:01:02.678Z,99533.16
2023-04-12T08:03:34.038Z,99524.22
2023-04-12T08:06:05.724Z,99508.22
2023-04-12T08:09:15.443Z,99504.25
2023-04-12T08:11:47.287Z,99502.31
2023-04-12T08:14:18.664Z,99490.56
2023-04-12T08:16:50.080Z,99483.16
2023-04-12T08:19:21.374Z,99481.06
2023-04-12T08:21:53.041Z,99466.47
2023-04-12T08:24:24.412Z,99460.91
2023-04-12T08:26:56.170Z,99480.59
2023-04-12T08:29:27.442Z,99467.75
2023-04-12T08:32:00.741Z,99471.31
2023-04-12T08:34:33.041Z,99453.94
2023-04-12T08:37:04.450Z,99441.59
2023-04-12T08:39:37.424Z,99442.78
2023-04-12T08:42:08.783Z,99453.53
2023-04-12T08:44:40.097Z,99434.00
2023-04-12T08:47:11.833Z,99449.41
2023-04-12T08:49:43.189Z,99443.00
2023-04-12T08:52:15.316Z,99418.13
2023-04-12T08:54:47.565Z,99425.31
2023-04-12T08:57:19.222Z,99423.81
2023-04-12T08:59:53.467Z,99418.94
2023-04-12T09:02:24.957Z,99416.69
2023-04-12T09:04:56.612Z,99401.16
2023-04-12T09:07:30.140Z,99411.50
2023-04-12T09:10:01.639Z,99407.75
2023-04-12T09:12:33.174Z,99390.44
2023-04-12T09:15:13.776Z,99398.41
2023-04-12T09:17:46.012Z,99390.28
2023-04-12T09:20:17.430Z,99388.50
2023-04-12T09:22:49.900Z,99388.78
2023-04-12T09:25:41.429Z,99374.06
2023-04-12T09:28:24.104Z,99365.50
2023-04-12T09:30:57.812Z,99357.88
2023-04-12T09:33:37.186Z,99354.00
2023-04-12T09:36:13.330Z,99331.44
2023-04-12T09:39:04.263Z,99352.28
2023-04-12T09:41:36.351Z,99357.47
2023-04-12T09:44:07.924Z,99352.16
2023-04-12T09:46:50.816Z,99345.88
2023-04-12T09:49:37.952Z,99339.78
2023-04-12T09:52:14.086Z,99325.53
2023-04-12T09:54:46.560Z,99332.88
2023-04-12T09:57:21.455Z,99324.66
2023-04-12T09:59:54.605Z,99319.78
2023-04-12T10:02:28.186Z,99333.88
2023-04-12T10:04:59.956Z,99325.66
2023-04-12T10:07:31.464Z,99309.75
2023-04-12T10:10:04.138Z,99320.63
2023-04-12T10:12:37.153Z,99307.41
2023-04-12T10:15:15.458Z,99320.66
2023-04-12T10:17:52.881Z,99317.06
2023-04-12T10:20:28.072Z,99326.75
2023-04-12T10:23:01.027Z,99312.47
2023-04-12T10:25:32.540Z,99317.91
2023-04-12T10:28:14.658Z,99310.41
2023-04-12T10:30:49.232Z,99312.38
2023-04-12T10:33:26.412Z,99295.25
2023-04-12T10:36:02.829Z,99326.72
2023-04-12T10:38:46.921Z,99315.53
2023-04-12T10:41:20.517Z,99315.66
2023-04-12T10:43:52.125Z,99316.53
2023-04-12T10:46:39.671Z,99311.97
2023-04-12T10:49:15.521Z,99308.38
2023-04-12T10:52:02.507Z,99317.41
2023-04-12T10:54:35.492Z,99314.31
2023-04-12T10:57:07.441Z,99294.56
2023-04-12T10:59:56.782Z,99309.31
2023-04-12T11:02:28.482Z,99312.09
2023-04-12T11:05:05.552Z,99304.50
2023-04-12T11:07:40.552Z,99324.25
2023-04-12T11:10:16.508Z,99316.84
2023-04-12T11:12:57.047Z,99312.47
2023-04-12T11:15:33.120Z,99297.41
2023-04-12T11:18:06.077Z,99302.09
2023-04-12T11:20:39.020Z,99306.97
2023-04-12T11:23:11.758Z,99300.63
2023-04-12T11:25:44.416Z,99301.94
2023-04-12T11:28:28.551Z,99302.16
2023-04-12T11:31:01.344Z,99293.28
2023-04-12T11:33:37.357Z,99294.34
2023-04-12T11:36:12.623Z,99285.16
2023-04-12T11:38:45.998Z,99275.38
2023-04-12T11:41:18.371Z,99277.16
2023-04-12T11:43:49.864Z,99273.69
2023-04-12T11:46:21.372Z,99262.00
2023-04-12T11:48:53.175Z,99245.53
2023-04-12T11:51:25.553Z,99266.44
2023-04-12T11:53:58.216Z,99248.91
2023-04-12T11:56:31.671Z,99252.78
2023-04-12T11:59:03.823Z,99253.41
2023-04-12T12:01:36.037Z,99254.38
2023-04-12T12:04:07.722Z,99247.97
2023-04-12T12:06:39.660Z,99239.41
2023-04-12T12:09:11.527Z,99251.63
2023-04-12T12:11:42.909Z,99241.63
2023-04-12T12:14:19.210Z,99241.75
2023-04-12T12:16:58.238Z,99236.16
2023-04-12T12:19:37.391Z,99236.41
2023-04-12T12:22:13.076Z,99226.09
2023-04-12T12:24:47.132Z,99227.88
2023-04-12T12:27:20.663Z,99214.19
2023-04-12T12:29:54.362Z,99220.97
2023-04-12T12:32:25.750Z,99225.22
2023-04-12T12:34:58.078Z,99215.78
2023-04-12T12:37:30.832Z,99212.47
2023-04-12T12:40:16.228Z,99211.72
2023-04-12T12:42:50.211Z,99215.16
2023-04-12T12:45:24.951Z,99201.81
2023-04-12T12:47:56.361Z,99213.34
2023-04-12T12:50:33.818Z,99200.56
2023-04-12T12:53:06.324Z,99197.41
2023-04-12T12:55:37.630Z,99167.69
2023-04-12T12:58:08.888Z,99194.25
2023-04-12T13:00:41.263Z,99190.88
2023-04-12T13:03:13.386Z,99185.25
2023-04-12T13:05:44.857Z,99174.22
2023-04-12T13:08:16.247Z,99177.78
2023-04-12T13:10:47.719Z,99177.78
2023-04-12T13:13:19.587Z,99142.03
2023-04-12T13:15:52.737Z,99170.56
2023-04-12T13:18:24.209Z,99166.59
2023-04-12T13:20:55.511Z,99176.59
2023-04-12T13:23:26.915Z,99159.88
2023-04-12T13:25:58.188Z,99146.22
2023-04-12T13:28:30.486Z,99156.84
2023-04-12T13:31:01.920Z,99154.69
2023-04-12T13:33:33.185Z,99146.84
2023-04-12T13:36:04.686Z,99149.38
2023-04-12T13:38:36.552Z,99156.97
2023-04-12T13:41:07.900Z,99149.50
2023-04-12T13:43:40.777Z,99138.72
2023-04-12T13:46:13.206Z,99126.88
2023-04-12T13:48:44.554Z,99136.81
2023-04-12T13:51:15.830Z,99134.44
2023-04-12T13:53:47.363Z,99135.88
2023-04-12T13:56:18.840Z,99124.91
2023-04-12T13:58:50.257Z,99142.41
2023-04-12T14:01:23.539Z,99144.97
2023-04-12T14:03:55.661Z,99144.88
2023-04-12T14:06:27.084Z,99148.34
2023-04-12T14:08:59.063Z,99133.34
2023-04-12T14:11:30.686Z,99116.81
2023-04-12T14:14:02.048Z,99132.16
2023-04-12T14:16:33.932Z,99124.47
2023-04-12T14:19:05.341Z,99127.72
2023-04-12T14:21:37.564Z,99126.72
2023-04-12T14:24:08.957Z,99128.31
2023-04-12T14:26:40.490Z,99113.28
2023-04-12T14:29:12.305Z,99119.03
2023-04-12T14:31:43.719Z,99104.25
2023-04-12T14:34:15.157Z,99108.97
2023-04-12T14:36:46.539Z,99100.47
2023-04-12T14:39:17.901Z,99104.06
2023-04-12T14:41:49.260Z,99084.38
2023-04-12T14:44:21.890Z,99098.25
2023-04-12T14:46:54.620Z,99080.81
2023-04-12T14:49:26.017Z,99101.66
2023-04-12T14:51:57.306Z,99096.16
2023-04-12T14:54:28.632Z,99093.31
2023-04-12T14:56:59.978Z,99096.91
2023-04-12T14:59:31.949Z,99091.47
2023-04-12T15:02:03.812Z,99079.53
2023-04-12T15:04:35.416Z,99088.53
2023-04-12T15:07:06.874Z,99098.47
2023-04-12T15:09:38.457Z,99100.59
2023-04-12T15:12:10.334Z,99086.78
2023-04-12T15:14:41.765Z,99082.56
2023-04-12T15:17:13.231Z,99074.31
2023-04-12T15:19:44.648Z,99077.13
2023-04-12T15:22:16.116Z,99053.19
2023-04-12T15:24:47.480Z,99062.25
2023-04-12T15:27:18.896Z,99063.97
2023-04-12T15:29:50.256Z,99065.84
2023-04-12T15:32:22.893Z,99068.22
2023-04-12T15:34:58.143Z,99056.22
2023-04-12T15:37:29.490Z,99068.16
2023-04-12T15:40:01.762Z,99064.78
2023-04-12T15:42:33.049Z,99062.03
2023-04-12T15:45:04.845Z,99060.97
2023-04-12T15:47:36.621Z,99046.13
2023-04-12T15:50:08.619Z,99057.03
2023-04-12T15:52:42.941Z,99056.03
2023-04-12T15:55:18.272Z,99055.22
2023-04-12T15:57:49.550Z,99037.50
2023-04-12T16:00:26.225Z,99051.13
2023-04-12T16:02:58.413Z,99052.56
2023-04-12T16:05:30.904Z,99042.09
2023-04-12T16:08:03.058Z,99060.25
2023-04-12T16:10:35.202Z,99034.50
2023-04-12T16:13:06.575Z,99045.81
2023-04-12T16:15:38.312Z,99045.97
2023-04-12T16:18:09.727Z,99061.63
2023-04-12T16:20:41.184Z,99059.38
2023-04-12T16:23:13.345Z,99057.03
2023-04-12T16:25:44.711Z,99041.94
2023-04-12T16:28:17.991Z,99054.13
2023-04-12T16:30:50.085Z,99055.56
2023-04-12T16:33:21.524Z,99053.97
2023-04-12T16:35:52.804Z,99052.38
2023-04-12T16:38:24.180Z,99049.94
2023-04-12T16:40:55.649Z,99015.81
2023-04-12T16:43:27.318Z,99039.06
2023-04-12T16:46:04.829Z,99041.84
2023-04-12T16:48:38.624Z,99033.09
2023-04-12T16:51:10.007Z,99008.03
2023-04-12T16:53:41.456Z,99034.31
2023-04-12T16:56:12.782Z,99030.94
2023-04-12T16:58:44.186Z,99029.13
2023-04-12T17:01:16.930Z,99027.34
2023-04-12T17:03:49.174Z,99024.75
2023-04-12T17:06:20.884Z,99031.88
2023-04-12T17:08:52.471Z,99021.28
2023-04-12T17:11:23.706Z,99015.25
2023-04-12T17:13:55.361Z,99010.88
2023-04-12T17:16:26.824Z,99002.25
2023-04-12T17:18:58.257Z,98999.97
2023-04-12T17:21:30.442Z,98980.66
2023-04-12T17:24:01.964Z,98994.53
2023-04-12T17:26:33.300Z,98992.31
2023-04-12T17:29:05.082Z,98985.28
2023-04-12T17:31:36.720Z,98990.25
2023-04-12T17:34:08.028Z,98990.50
2023-04-12T17:36:39.836Z,99000.09
2023-04-12T17:39:11.384Z,99006.53
2023-04-12T17:41:42.761Z,99003.22
2023-04-12T17:44:14.032Z,99003.34
2023-04-12T17:46:45.459Z,99003.41
2023-04-12T17:49:16.888Z,98980.13
2023-04-12T17:51:48.181Z,98996.50
2023-04-12T17:54:20.574Z,99001.75
2023-04-12T17:56:51.877Z,98994.66
2023-04-12T17:59:24.040Z,98999.81
2023-04-12T18:01:55.561Z,98985.38
2023-04-12T18:04:28.973Z,99010.50
2023-04-12T18:07:01.306Z,99020.97
2023-04-12T18:09:32.888Z,99021.41
2023-04-12T18:12:07.390Z,99033.78
2023-04-12T18:14:40.516Z,99035.50
2023-04-12T18:17:12.146Z,99032.31
2023-04-12T18:19:43.560Z,99032.44
2023-04-12T18:22:14.818Z,99015.44
2023-04-12T18:24:46.223Z,99025.66
2023-04-12T18:27:17.543Z,99041.56
2023-04-12T18:29:48.938Z,99029.47
2023-04-12T18:32:20.545Z,99022.88
2023-04-12T18:34:52.604Z,99055.16
2023-04-12T18:37:23.985Z,99049.94
2023-04-12T18:39:55.437Z,99046.34
2023-04-12T18:42:26.840Z,99058.78
2023-04-12T18:44:58.242Z,99078.19
2023-04-12T18:47:29.682Z,99073.88
2023-04-12T18:50:00.982Z,99088.09
2023-04-12T18:52:32.281Z,99101.53
2023-04-12T18:55:03.803Z,99099.00
2023-04-12T18:57:35.252Z,99080.94
2023-04-12T19:00:13.402Z,99103.56
2023-04-12T19:02:44.809Z,99116.28
2023-04-12T19:05:18.444Z,99123.41
2023-04-12T19:07:50.622Z,99103.56
2023-04-12T19:10:27.736Z,99124.38
2023-04-12T19:12:59.007Z,99118.06
2023-04-12T19:15:30.456Z,99125.03
2023-04-12T19:18:01.877Z,99133.94
2023-04-12T19:20:33.674Z,99111.63
2023-04-12T19:23:05.134Z,99123.09
2023-04-12T19:25:36.467Z,99160.28
2023-04-12T19:28:08.584Z,99153.44
2023-04-12T19:30:42.359Z,99172.41
2023-04-12T19:33:13.690Z,99180.56
2023-04-12T19:35:44.977Z,99181.84
2023-04-12T19:38:17.030Z,99168.22
2023-04-12T19:40:51.864Z,99135.47
2023-04-12T19:43:28.751Z,99146.03
2023-04-12T19:46:09.440Z,99131.25
2023-04-12T19:48:40.836Z,99163.50
2023-04-12T19:51:13.196Z,99161.69
2023-04-12T19:53:46.165Z,99156.28
2023-04-12T19:56:19.454Z,99153.66
2023-04-12T19:58:50.816Z,99132.88
2023-04-12T20:01:22.301Z,99127.34
2023-04-12T20:03:55.803Z,99152.47
2023-04-12T20:06:28.602Z,99156.81
2023-04-12T20:09:02.924Z,99148.84
2023-04-12T20:11:34.244Z,99135.88
2023-04-12T20:14:08.082Z,99135.78
2023-04-12T20:16:43.653Z,99122.22
2023-04-12T20:19:16.612Z,99128.44
2023-04-12T20:21:47.882Z,99129.59
2023-04-12T20:24:19.152Z,99118.50
2023-04-12T20:26:51.467Z,99111.75
2023-04-12T20:29:22.947Z,99120.69
2023-04-12T20:31:55.563Z,99107.03
2023-04-12T20:34:29.307Z,99118.69
2023-04-12T20:37:00.581Z,99141.66
2023-04-12T20:39:31.971Z,99114.03
2023-04-12T20:42:03.429Z,99126.44
2023-04-12T20:44:34.761Z,99130.97
2023-04-12T20:47:07.158Z,99139.22
2023-04-12T20:49:38.461Z,99135.19
2023-04-12T20:52:09.786Z,99149.47
2023-04-12T20:54:41.453Z,99151.38
2023-04-12T20:57:19.614Z,99150.00
2023-04-12T20:59:51.485Z,99169.31
2023-04-12T21:02:23.160Z,99175.78
2023-04-12T21:04:54.523Z,99154.25
2023-04-12T21:07:26.058Z,99157.06
2023-04-12T21:09:57.325Z,99153.75
2023-04-12T21:12:32.005Z,99150.50
2023-04-12T21:15:03.538Z,99152.34
2023-04-12T21:17:35.987Z,99155.16
2023-04-12T21:20:13.910Z,99170.19
2023-04-12T21:22:47.696Z,99178.25
2023-04-12T21:25:19.640Z,99186.25
2023-04-12T21:27:51.258Z,99182.94
2023-04-12T21:30:22.592Z,99184.81
2023-04-12T21:32:53.848Z,99186.72
2023-04-12T21:35:25.762Z,99166.91
2023-04-12T21:37:57.545Z,99195.69
2023-04-12T21:40:28.912Z,99205.38
2023-04-12T21:43:01.376Z,99210.72
2023-04-12T21:45:32.627Z,99217.72
2023-04-12T21:48:04.230Z,99217.72
2023-04-12T21:50:35.781Z,99216.03
2023-04-12T21:53:07.190Z,99208.97
2023-04-12T21:55:38.460Z,99188.09
2023-04-12T21:58:09.791Z,99208.13
2023-04-12T22:00:41.657Z,99205.53
2023-04-12T22:03:13.328Z,99201.13
2023-04-12T22:05:51.066Z,99195.00
2023-04-12T22:08:29.526Z,99202.03
2023-04-12T22:11:01.292Z,99191.66
2023-04-12T22:13:33.059Z,99201.19
2023-04-12T22:16:04.774Z,99195.06
2023-04-12T22:18:37.226Z,99189.81
2023-04-12T22:21:09.627Z,99191.53
2023-04-12T22:23:41.366Z,99192.41
2023-04-12T22:26:13.245Z,99190.66
2023-04-12T22:28:44.663Z,99164.75
2023-04-12T22:31:16.342Z,99177.78
2023-04-12T22:33:47.966Z,99197.91
2023-04-12T22:36:19.261Z,99202.38
2023-04-12T22:38:50.536Z,99203.34
2023-04-12T22:41:22.962Z,99196.44
2023-04-12T22:44:01.074Z,99206.09
2023-04-12T22:46:32.610Z,99193.84
2023-04-12T22:49:04.628Z,99195.59
2023-04-12T22:51:36.500Z,99197.31
2023-04-12T22:54:09.002Z,99192.06
2023-04-12T22:56:46.735Z,99192.94
2023-04-12T22:59:20.046Z,99186.84
2023-04-12T23:01:51.498Z,99186.88
2023-04-12T23:04:22.984Z,99174.59
2023-04-12T23:06:57.040Z,99160.59
2023-04-12T23:09:28.640Z,99150.31
2023-04-12T23:12:00.089Z,99186.00
2023-04-12T23:14:31.545Z,99179.03
2023-04-12T23:17:02.925Z,99176.41
2023-04-12T23:19:34.422Z,99187.81
2023-04-12T23:22:06.083Z,99191.31
2023-04-12T23:24:37.679Z,99203.59
2023-04-12T23:27:09.557Z,99196.56
2023-04-12T23:29:42.166Z,99193.06
2023-04-12T23:32:13.908Z,99174.03
2023-04-12T23:34:46.344Z,99201.91
2023-04-12T23:37:17.684Z,99200.22
2023-04-12T23:39:48.948Z,99200.31
2023-04-12T23:42:20.268Z,99196.91
2023-04-12T23:44:51.535Z,99200.53
2023-04-12T23:47:22.814Z,99199.75
2023-04-12T23:49:54.064Z,99194.59
2023-04-12T23:52:25.484Z,99167.69
2023-04-12T23:54:57.024Z,99189.50
2023-04-12T23:57:28.513Z,99174.09
2023-04-12T23:59:59.989Z,99181.88
